createdAt,value
2017-08-20T00:00:10.228Z,859.86
2017-08-20T00:01:10.219Z,859.88
2017-08-20T00:02:10.208Z,859.85
2017-08-20T00:03:10.203Z,859.91
2017-08-20T00:04:10.287Z,859.87
2017-08-20T00:05:10.176Z,859.88
2017-08-20T00:06:10.164Z,859.88
2017-08-20T00:07:10.153Z,859.87
2017-08-20T00:08:10.143Z,859.90
2017-08-20T00:09:10.136Z,859.89
2017-08-20T00:10:10.229Z,859.83
2017-08-20T00:11:10.110Z,859.86
2017-08-20T00:12:10.099Z,859.82
2017-08-20T00:13:10.089Z,859.77
2017-08-20T00:14:10.083Z,859.82
2017-08-20T00:15:10.072Z,859.81
2017-08-20T00:16:10.162Z,859.83
2017-08-20T00:17:10.050Z,859.82
2017-08-20T00:18:10.039Z,859.88
2017-08-20T00:19:10.022Z,859.87
2017-08-20T00:20:10.011Z,859.83
2017-08-20T00:21:10.005Z,859.82
2017-08-20T00:22:10.088Z,859.82
2017-08-20T00:23:09.982Z,859.90
2017-08-20T00:24:09.967Z,859.86
2017-08-20T00:25:09.968Z,859.89
2017-08-20T00:26:09.942Z,859.87
2017-08-20T00:27:09.931Z,859.87
2017-08-20T00:28:10.025Z,859.84
2017-08-20T00:29:09.914Z,859.79
2017-08-20T00:30:09.903Z,859.81
2017-08-20T00:31:09.891Z,859.81
2017-08-20T00:32:09.875Z,859.80
2017-08-20T00:33:09.868Z,859.81
2017-08-20T00:34:09.951Z,859.79
2017-08-20T00:35:09.840Z,859.81
2017-08-20T00:36:09.835Z,859.83
2017-08-20T00:37:09.816Z,859.84
2017-08-20T00:38:09.805Z,859.87
2017-08-20T00:39:09.793Z,859.84
2017-08-20T00:40:09.882Z,859.85
2017-08-20T00:41:09.771Z,859.81
2017-08-20T00:42:09.765Z,859.81
2017-08-20T00:43:09.752Z,859.83
2017-08-20T00:44:09.742Z,859.83
2017-08-20T00:45:09.725Z,859.82
2017-08-20T00:46:09.812Z,859.83
2017-08-20T00:47:09.701Z,859.86
2017-08-20T00:48:09.689Z,859.83
2017-08-20T00:49:09.676Z,859.80
2017-08-20T00:50:09.672Z,859.84
2017-08-20T00:51:09.904Z,859.84
2017-08-20T00:52:09.743Z,859.86
2017-08-20T00:53:09.630Z,859.83
2017-08-20T00:54:09.619Z,859.83
2017-08-20T00:55:09.613Z,859.82
2017-08-20T00:56:09.602Z,859.84
2017-08-20T00:57:09.583Z,859.83
2017-08-20T00:58:09.673Z,859.83
2017-08-20T00:59:09.560Z,859.84
2017-08-20T01:00:09.564Z,859.87
2017-08-20T01:01:09.543Z,859.87
2017-08-20T01:02:09.526Z,859.82
2017-08-20T01:03:09.513Z,859.85
2017-08-20T01:04:09.613Z,859.88
2017-08-20T01:05:09.490Z,859.89
2017-08-20T01:06:09.483Z,859.90
2017-08-20T01:07:09.472Z,859.91
2017-08-20T01:08:09.461Z,859.95
2017-08-20T01:09:09.442Z,859.95
2017-08-20T01:10:09.533Z,859.92
2017-08-20T01:11:09.419Z,859.90
2017-08-20T01:12:09.414Z,859.92
2017-08-20T01:13:09.395Z,859.91
2017-08-20T01:14:09.384Z,859.90
2017-08-20T01:15:09.378Z,859.90
2017-08-20T01:16:09.462Z,859.88
2017-08-20T01:17:09.348Z,859.90
2017-08-20T01:18:09.339Z,859.90
2017-08-20T01:19:09.326Z,859.89
2017-08-20T01:20:09.315Z,859.91
2017-08-20T01:21:09.302Z,859.85
2017-08-20T01:22:09.390Z,859.84
2017-08-20T01:23:09.285Z,859.82
2017-08-20T01:24:09.278Z,859.80
2017-08-20T01:25:09.256Z,859.77
2017-08-20T01:26:09.243Z,859.80
2017-08-20T01:27:09.236Z,859.80
2017-08-20T01:28:09.526Z,859.78
2017-08-20T01:29:09.208Z,859.78
2017-08-20T01:30:09.196Z,859.81
2017-08-20T01:31:09.184Z,859.82
2017-08-20T01:32:09.173Z,859.81
2017-08-20T01:33:09.161Z,859.82
2017-08-20T01:34:09.255Z,859.86
2017-08-20T01:35:09.142Z,859.85
2017-08-20T01:36:09.126Z,859.90
2017-08-20T01:37:09.112Z,859.90
2017-08-20T01:38:09.109Z,859.94
2017-08-20T01:39:09.088Z,859.92
2017-08-20T01:40:09.182Z,859.91
2017-08-20T01:41:09.063Z,859.93
2017-08-20T01:42:09.052Z,859.89
2017-08-20T01:43:09.040Z,859.92
2017-08-20T01:44:09.028Z,859.91
2017-08-20T01:45:09.015Z,859.90
2017-08-20T01:46:09.103Z,859.91
2017-08-20T01:47:08.992Z,859.91
2017-08-20T01:48:08.987Z,859.91
2017-08-20T01:49:08.966Z,859.87
2017-08-20T01:50:08.958Z,859.89
2017-08-20T01:51:08.949Z,859.87
2017-08-20T01:52:09.033Z,859.90
2017-08-20T01:53:08.924Z,859.88
2017-08-20T01:54:08.908Z,859.88
2017-08-20T01:55:08.895Z,859.88
2017-08-20T01:56:08.883Z,859.89
2017-08-20T01:57:08.870Z,859.87
2017-08-20T01:58:08.964Z,859.87
2017-08-20T01:59:08.848Z,859.85
2017-08-20T02:00:08.835Z,859.82
2017-08-20T02:01:08.822Z,859.83
2017-08-20T02:02:08.820Z,859.83
2017-08-20T02:03:08.804Z,859.84
2017-08-20T02:04:08.786Z,859.83
2017-08-20T02:05:08.780Z,859.80
2017-08-20T02:06:08.762Z,859.79
2017-08-20T02:07:08.749Z,859.81
2017-08-20T02:08:08.738Z,859.81
2017-08-20T02:09:08.724Z,859.77
2017-08-20T02:10:08.719Z,859.80
2017-08-20T02:11:08.701Z,859.83
2017-08-20T02:12:08.690Z,859.88
2017-08-20T02:13:08.681Z,859.84
2017-08-20T02:14:08.665Z,859.80
2017-08-20T02:15:08.653Z,859.84
2017-08-20T02:16:08.643Z,859.81
2017-08-20T02:17:08.728Z,859.81
2017-08-20T02:18:08.637Z,859.81
2017-08-20T02:19:08.610Z,859.77
2017-08-20T02:20:08.599Z,859.77
2017-08-20T02:21:08.580Z,859.77
2017-08-20T02:22:08.569Z,859.76
2017-08-20T02:23:08.556Z,859.76
2017-08-20T02:24:08.550Z,859.77
2017-08-20T02:25:08.531Z,859.76
2017-08-20T02:26:08.525Z,859.73
2017-08-20T02:27:08.613Z,859.71
2017-08-20T02:28:08.496Z,859.71
2017-08-20T02:29:08.489Z,859.75
2017-08-20T02:30:08.470Z,859.69
2017-08-20T02:31:08.459Z,859.75
2017-08-20T02:32:08.447Z,859.77
2017-08-20T02:33:08.733Z,859.72
2017-08-20T02:34:08.422Z,859.75
2017-08-20T02:35:08.410Z,859.78
2017-08-20T02:36:08.417Z,859.79
2017-08-20T02:37:08.384Z,859.79
2017-08-20T02:38:08.378Z,859.83
2017-08-20T02:39:08.459Z,859.84
2017-08-20T02:40:08.348Z,859.86
2017-08-20T02:41:08.337Z,859.88
2017-08-20T02:42:08.328Z,859.87
2017-08-20T02:43:08.316Z,859.91
2017-08-20T02:44:08.298Z,859.89
2017-08-20T02:45:08.393Z,859.90
2017-08-20T02:46:08.278Z,859.87
2017-08-20T02:47:08.267Z,859.95
2017-08-20T02:48:08.255Z,859.94
2017-08-20T02:49:08.235Z,859.91
2017-08-20T02:50:08.224Z,859.90
2017-08-20T02:51:08.319Z,859.93
2017-08-20T02:52:08.199Z,859.91
2017-08-20T02:53:08.192Z,859.90
2017-08-20T02:54:08.182Z,859.93
2017-08-20T02:55:08.163Z,859.93
2017-08-20T02:56:08.151Z,859.91
2017-08-20T02:57:08.136Z,859.91
2017-08-20T02:58:08.126Z,859.91
2017-08-20T02:59:08.212Z,859.90
2017-08-20T03:00:08.106Z,859.92
2017-08-20T03:01:08.086Z,859.89
2017-08-20T03:02:08.075Z,859.92
2017-08-20T03:03:08.062Z,859.91
2017-08-20T03:04:08.051Z,859.88
2017-08-20T03:05:08.137Z,859.86
2017-08-20T03:06:08.031Z,859.89
2017-08-20T03:07:08.012Z,859.91
2017-08-20T03:08:08.001Z,859.88
2017-08-20T03:09:07.994Z,859.89
2017-08-20T03:10:07.981Z,859.90
2017-08-20T03:11:08.065Z,859.90
2017-08-20T03:12:07.951Z,859.92
2017-08-20T03:13:07.943Z,859.90
2017-08-20T03:14:07.927Z,859.90
2017-08-20T03:15:07.914Z,859.89
2017-08-20T03:16:07.902Z,859.92
2017-08-20T03:17:07.995Z,859.91
2017-08-20T03:18:07.878Z,859.88
2017-08-20T03:19:07.864Z,859.94
2017-08-20T03:20:07.852Z,859.93
2017-08-20T03:21:07.840Z,859.91
2017-08-20T03:22:07.827Z,859.91
2017-08-20T03:23:07.921Z,859.89
2017-08-20T03:24:07.803Z,859.88
2017-08-20T03:25:07.790Z,859.92
2017-08-20T03:26:07.779Z,859.94
2017-08-20T03:27:07.766Z,859.96
2017-08-20T03:28:07.755Z,860.00
2017-08-20T03:29:07.846Z,860.03
2017-08-20T03:30:07.734Z,860.05
2017-08-20T03:31:07.723Z,860.01
2017-08-20T03:32:07.706Z,860.04
2017-08-20T03:33:07.693Z,860.02
2017-08-20T03:34:07.680Z,860.02
2017-08-20T03:35:07.768Z,860.03
2017-08-20T03:36:07.664Z,860.08
2017-08-20T03:37:07.644Z,860.07
2017-08-20T03:38:07.633Z,860.06
2017-08-20T03:39:07.621Z,860.08
2017-08-20T03:40:07.613Z,860.05
2017-08-20T03:41:07.700Z,860.11
2017-08-20T03:42:07.583Z,860.12
2017-08-20T03:43:07.571Z,860.10
2017-08-20T03:44:07.560Z,860.17
2017-08-20T03:45:07.548Z,860.16
2017-08-20T03:46:07.535Z,860.15
2017-08-20T03:47:07.624Z,860.11
2017-08-20T03:48:07.511Z,860.14
2017-08-20T03:49:07.504Z,860.14
2017-08-20T03:50:07.486Z,860.14
2017-08-20T03:51:07.476Z,860.12
2017-08-20T03:52:07.463Z,860.16
2017-08-20T03:53:07.452Z,860.14
2017-08-20T03:54:07.438Z,860.12
2017-08-20T03:55:07.533Z,860.15
2017-08-20T03:56:07.416Z,860.19
2017-08-20T03:57:07.404Z,860.20
2017-08-20T03:58:07.390Z,860.18
2017-08-20T03:59:07.380Z,860.21
2017-08-20T04:00:07.373Z,860.19
2017-08-20T04:01:07.360Z,860.22
2017-08-20T04:02:07.363Z,860.18
2017-08-20T04:03:07.637Z,860.23
2017-08-20T04:04:07.319Z,860.21
2017-08-20T04:05:07.412Z,860.23
2017-08-20T04:06:07.295Z,860.19
2017-08-20T04:07:07.285Z,860.22
2017-08-20T04:08:07.272Z,860.19
2017-08-20T04:09:07.259Z,860.21
2017-08-20T04:10:07.249Z,860.19
2017-08-20T04:11:07.337Z,860.21
2017-08-20T04:12:07.227Z,860.25
2017-08-20T04:13:07.212Z,860.22
2017-08-20T04:14:07.200Z,860.23
2017-08-20T04:15:07.189Z,860.26
2017-08-20T04:16:07.177Z,860.26
2017-08-20T04:17:07.264Z,860.24
2017-08-20T04:18:07.157Z,860.28
2017-08-20T04:19:07.142Z,860.30
2017-08-20T04:20:07.129Z,860.28
2017-08-20T04:21:07.118Z,860.30
2017-08-20T04:22:07.105Z,860.29
2017-08-20T04:23:07.199Z,860.28
2017-08-20T04:24:07.088Z,860.28
2017-08-20T04:25:07.068Z,860.35
2017-08-20T04:26:07.064Z,860.31
2017-08-20T04:27:07.045Z,860.33
2017-08-20T04:28:07.040Z,860.37
2017-08-20T04:29:07.121Z,860.29
2017-08-20T04:30:07.015Z,860.33
2017-08-20T04:31:07.004Z,860.32
2017-08-20T04:32:06.987Z,860.38
2017-08-20T04:33:06.974Z,860.36
2017-08-20T04:34:06.964Z,860.37
2017-08-20T04:35:07.052Z,860.38
2017-08-20T04:36:06.940Z,860.38
2017-08-20T04:37:06.926Z,860.38
2017-08-20T04:38:06.914Z,860.38
2017-08-20T04:39:06.903Z,860.38
2017-08-20T04:40:06.897Z,860.36
2017-08-20T04:41:06.987Z,860.41
2017-08-20T04:42:06.869Z,860.42
2017-08-20T04:43:06.856Z,860.41
2017-08-20T04:44:06.844Z,860.45
2017-08-20T04:45:06.832Z,860.44
2017-08-20T04:46:06.821Z,860.48
2017-08-20T04:47:06.913Z,860.51
2017-08-20T04:48:06.800Z,860.48
2017-08-20T04:49:06.785Z,860.47
2017-08-20T04:50:06.779Z,860.51
2017-08-20T04:51:06.862Z,860.54
2017-08-20T04:52:06.748Z,860.51
2017-08-20T04:53:06.838Z,860.49
2017-08-20T04:54:06.731Z,860.48
2017-08-20T04:55:06.718Z,860.47
2017-08-20T04:56:06.702Z,860.44
2017-08-20T04:57:06.689Z,860.51
2017-08-20T04:58:06.678Z,860.49
2017-08-20T04:59:06.766Z,860.46
2017-08-20T05:00:06.654Z,860.50
2017-08-20T05:01:06.642Z,860.49
2017-08-20T05:02:06.636Z,860.47
2017-08-20T05:03:06.618Z,860.53
2017-08-20T05:04:06.615Z,860.50
2017-08-20T05:05:06.695Z,860.44
2017-08-20T05:06:06.582Z,860.45
2017-08-20T05:07:06.571Z,860.46
2017-08-20T05:08:06.559Z,860.49
2017-08-20T05:09:06.548Z,860.44
2017-08-20T05:10:06.536Z,860.43
2017-08-20T05:11:06.623Z,860.42
2017-08-20T05:12:06.514Z,860.39
2017-08-20T05:13:06.499Z,860.38
2017-08-20T05:14:06.489Z,860.39
2017-08-20T05:15:06.482Z,860.43
2017-08-20T05:16:06.470Z,860.40
2017-08-20T05:17:06.558Z,860.38
2017-08-20T05:18:06.442Z,860.41
2017-08-20T05:19:06.429Z,860.43
2017-08-20T05:20:06.422Z,860.44
2017-08-20T05:21:06.411Z,860.43
2017-08-20T05:22:06.393Z,860.41
2017-08-20T05:23:06.482Z,860.46
2017-08-20T05:24:06.370Z,860.44
2017-08-20T05:25:06.364Z,860.45
2017-08-20T05:26:06.351Z,860.47
2017-08-20T05:27:06.335Z,860.49
2017-08-20T05:28:06.328Z,860.51
2017-08-20T05:29:06.312Z,860.51
2017-08-20T05:30:06.300Z,860.50
2017-08-20T05:31:06.288Z,860.50
2017-08-20T05:32:06.277Z,860.56
2017-08-20T05:33:06.271Z,860.56
2017-08-20T05:34:06.359Z,860.62
2017-08-20T05:35:06.247Z,860.62
2017-08-20T05:36:06.231Z,860.62
2017-08-20T05:37:06.218Z,860.67
2017-08-20T05:38:06.244Z,860.60
2017-08-20T05:39:06.296Z,860.63
2017-08-20T05:40:06.289Z,860.64
2017-08-20T05:41:06.207Z,860.63
2017-08-20T05:42:06.162Z,860.64
2017-08-20T05:43:06.151Z,860.65
2017-08-20T05:44:06.144Z,860.63
2017-08-20T05:45:06.126Z,860.65
2017-08-20T05:46:06.121Z,860.68
2017-08-20T05:47:06.104Z,860.68
2017-08-20T05:48:06.099Z,860.68
2017-08-20T05:49:06.180Z,860.69
2017-08-20T05:50:06.070Z,860.72
2017-08-20T05:51:06.061Z,860.69
2017-08-20T05:52:06.057Z,860.72
2017-08-20T05:53:06.035Z,860.73
2017-08-20T05:54:06.124Z,860.67
2017-08-20T05:55:06.112Z,860.73
2017-08-20T05:56:06.007Z,860.74
2017-08-20T05:57:05.989Z,860.75
2017-08-20T05:58:05.978Z,860.76
2017-08-20T05:59:05.972Z,860.74
2017-08-20T06:00:05.973Z,860.74
2017-08-20T06:01:06.045Z,860.76
2017-08-20T06:02:05.932Z,860.73
2017-08-20T06:03:05.928Z,860.75
2017-08-20T06:04:05.910Z,860.76
2017-08-20T06:05:05.898Z,860.77
2017-08-20T06:06:05.887Z,860.76
2017-08-20T06:07:05.979Z,860.75
2017-08-20T06:08:05.865Z,860.75
2017-08-20T06:09:05.853Z,860.79
2017-08-20T06:10:05.841Z,860.77
2017-08-20T06:11:05.858Z,860.77
2017-08-20T06:12:05.819Z,860.79
2017-08-20T06:13:05.912Z,860.79
2017-08-20T06:14:05.795Z,860.78
2017-08-20T06:15:05.791Z,860.77
2017-08-20T06:16:05.773Z,860.77
2017-08-20T06:17:05.761Z,860.77
2017-08-20T06:18:05.750Z,860.81
2017-08-20T06:19:05.848Z,860.79
2017-08-20T06:20:05.728Z,860.81
2017-08-20T06:21:05.713Z,860.78
2017-08-20T06:22:05.702Z,860.78
2017-08-20T06:23:05.692Z,860.81
2017-08-20T06:24:05.679Z,860.74
2017-08-20T06:25:05.773Z,860.79
2017-08-20T06:26:05.662Z,860.83
2017-08-20T06:27:05.645Z,860.80
2017-08-20T06:28:05.632Z,860.79
2017-08-20T06:29:05.620Z,860.82
2017-08-20T06:30:05.608Z,860.83
2017-08-20T06:31:05.598Z,860.81
2017-08-20T06:32:05.590Z,860.78
2017-08-20T06:33:05.573Z,860.81
2017-08-20T06:34:05.562Z,860.85
2017-08-20T06:35:05.550Z,860.84
2017-08-20T06:36:05.639Z,860.85
2017-08-20T06:37:05.532Z,860.85
2017-08-20T06:38:05.516Z,860.87
2017-08-20T06:39:05.510Z,860.88
2017-08-20T06:40:05.497Z,860.85
2017-08-20T06:41:05.486Z,860.92
2017-08-20T06:42:05.575Z,860.91
2017-08-20T06:43:05.458Z,860.94
2017-08-20T06:44:05.448Z,861.00
2017-08-20T06:45:05.436Z,861.11
2017-08-20T06:46:05.426Z,861.31
2017-08-20T06:47:05.419Z,861.62
2017-08-20T06:48:05.509Z,861.76
2017-08-20T06:49:05.401Z,861.29
2017-08-20T06:50:05.469Z,860.98
2017-08-20T06:51:05.389Z,860.94
2017-08-20T06:52:05.382Z,860.92
2017-08-20T06:53:05.380Z,860.90
2017-08-20T06:54:05.469Z,860.95
2017-08-20T06:55:05.367Z,861.17
2017-08-20T06:56:05.360Z,861.35
2017-08-20T06:57:05.352Z,861.25
2017-08-20T06:58:05.342Z,861.03
2017-08-20T06:59:05.335Z,861.06
2017-08-20T07:00:05.429Z,861.10
2017-08-20T07:01:05.321Z,860.94
2017-08-20T07:02:05.314Z,860.88
2017-08-20T07:03:05.308Z,860.90
2017-08-20T07:04:05.302Z,860.96
2017-08-20T07:05:05.294Z,860.94
2017-08-20T07:06:05.386Z,860.94
2017-08-20T07:07:05.285Z,860.99
2017-08-20T07:08:05.271Z,861.07
2017-08-20T07:09:05.270Z,860.96
2017-08-20T07:10:05.356Z,860.93
2017-08-20T07:11:05.254Z,860.92
2017-08-20T07:12:05.340Z,860.93
2017-08-20T07:13:05.232Z,860.94
2017-08-20T07:14:05.224Z,860.98
2017-08-20T07:15:05.221Z,861.27
2017-08-20T07:16:05.207Z,860.96
2017-08-20T07:17:05.203Z,861.00
2017-08-20T07:18:05.289Z,861.12
2017-08-20T07:19:05.181Z,861.02
2017-08-20T07:20:05.180Z,861.06
2017-08-20T07:21:05.163Z,861.10
2017-08-20T07:22:05.153Z,861.08
2017-08-20T07:23:05.145Z,861.04
2017-08-20T07:24:05.236Z,861.04
2017-08-20T07:25:05.128Z,861.05
2017-08-20T07:26:05.119Z,861.06
2017-08-20T07:27:05.110Z,861.12
2017-08-20T07:28:05.102Z,861.10
2017-08-20T07:29:05.098Z,861.10
2017-08-20T07:30:05.184Z,861.08
2017-08-20T07:31:05.076Z,861.09
2017-08-20T07:32:05.067Z,861.16
2017-08-20T07:33:05.059Z,861.09
2017-08-20T07:34:05.051Z,861.13
2017-08-20T07:35:05.049Z,861.11
2017-08-20T07:36:05.036Z,861.05
2017-08-20T07:37:05.027Z,861.07
2017-08-20T07:38:05.120Z,861.09
2017-08-20T07:39:05.011Z,861.12
2017-08-20T07:40:05.004Z,861.11
2017-08-20T07:41:04.995Z,861.14
2017-08-20T07:42:04.986Z,861.13
2017-08-20T07:43:04.984Z,861.14
2017-08-20T07:44:05.072Z,861.12
2017-08-20T07:45:04.961Z,861.14
2017-08-20T07:46:04.952Z,861.13
2017-08-20T07:47:04.944Z,861.13
2017-08-20T07:48:04.936Z,861.10
2017-08-20T07:49:04.925Z,861.13
2017-08-20T07:50:04.924Z,861.12
2017-08-20T07:51:04.912Z,861.14
2017-08-20T07:52:04.900Z,861.12
2017-08-20T07:53:04.991Z,861.15
2017-08-20T07:54:04.881Z,861.11
2017-08-20T07:55:04.874Z,861.11
2017-08-20T07:56:04.865Z,861.12
2017-08-20T07:57:04.863Z,861.14
2017-08-20T07:58:04.845Z,861.11
2017-08-20T07:59:04.938Z,861.11
2017-08-20T08:00:04.827Z,861.11
2017-08-20T08:01:04.819Z,861.11
2017-08-20T08:02:04.809Z,861.09
2017-08-20T08:03:04.804Z,861.16
2017-08-20T08:04:04.789Z,861.18
2017-08-20T08:05:04.882Z,861.23
2017-08-20T08:06:04.770Z,861.14
2017-08-20T08:07:04.764Z,861.12
2017-08-20T08:08:04.758Z,861.17
2017-08-20T08:09:04.743Z,861.14
2017-08-20T08:10:04.732Z,861.15
2017-08-20T08:11:04.824Z,861.15
2017-08-20T08:12:04.719Z,861.17
2017-08-20T08:13:04.705Z,861.19
2017-08-20T08:14:04.696Z,861.15
2017-08-20T08:15:04.686Z,861.16
2017-08-20T08:16:04.675Z,861.16
2017-08-20T08:17:04.765Z,861.14
2017-08-20T08:18:04.656Z,861.18
2017-08-20T08:19:04.651Z,861.24
2017-08-20T08:20:04.639Z,861.22
2017-08-20T08:21:04.627Z,861.27
2017-08-20T08:22:04.619Z,861.26
2017-08-20T08:23:04.709Z,861.30
2017-08-20T08:24:04.600Z,861.34
2017-08-20T08:25:04.589Z,861.37
2017-08-20T08:26:04.579Z,861.35
2017-08-20T08:27:04.572Z,861.39
2017-08-20T08:28:04.567Z,861.39
2017-08-20T08:29:04.551Z,861.36
2017-08-20T08:30:04.542Z,861.36
2017-08-20T08:31:04.633Z,861.31
2017-08-20T08:32:04.526Z,861.34
2017-08-20T08:33:04.515Z,861.30
2017-08-20T08:34:04.505Z,861.31
2017-08-20T08:35:04.502Z,861.39
2017-08-20T08:36:04.486Z,861.39
2017-08-20T08:37:04.479Z,861.35
2017-08-20T08:38:04.474Z,861.38
2017-08-20T08:39:04.459Z,861.34
2017-08-20T08:40:04.450Z,861.34
2017-08-20T08:41:04.540Z,861.37
2017-08-20T08:42:04.437Z,861.33
2017-08-20T08:43:04.424Z,861.31
2017-08-20T08:44:04.415Z,861.31
2017-08-20T08:45:04.405Z,861.36
2017-08-20T08:46:04.396Z,861.37
2017-08-20T08:47:04.486Z,861.42
2017-08-20T08:48:04.377Z,861.40
2017-08-20T08:49:04.368Z,861.42
2017-08-20T08:50:04.358Z,861.46
2017-08-20T08:51:04.351Z,861.45
2017-08-20T08:52:04.340Z,861.41
2017-08-20T08:53:04.333Z,861.45
2017-08-20T08:54:04.322Z,861.47
2017-08-20T08:55:04.361Z,861.46
2017-08-20T08:56:04.472Z,861.45
2017-08-20T08:57:04.294Z,861.39
2017-08-20T08:58:04.290Z,861.39
2017-08-20T08:59:04.277Z,861.40
2017-08-20T09:00:04.269Z,861.37
2017-08-20T09:01:04.256Z,861.41
2017-08-20T09:02:04.354Z,861.43
2017-08-20T09:03:04.239Z,861.44
2017-08-20T09:04:04.231Z,861.43
2017-08-20T09:05:04.226Z,861.45
2017-08-20T09:06:04.211Z,861.40
2017-08-20T09:07:04.203Z,861.46
2017-08-20T09:08:04.295Z,861.43
2017-08-20T09:09:04.189Z,861.44
2017-08-20T09:10:04.174Z,861.41
2017-08-20T09:11:04.166Z,861.46
2017-08-20T09:12:04.157Z,861.43
2017-08-20T09:13:04.152Z,861.42
2017-08-20T09:14:04.237Z,861.38
2017-08-20T09:15:04.129Z,861.43
2017-08-20T09:16:04.119Z,861.42
2017-08-20T09:17:04.111Z,861.45
2017-08-20T09:18:04.102Z,861.46
2017-08-20T09:19:04.093Z,861.46
2017-08-20T09:20:04.089Z,861.46
2017-08-20T09:21:04.075Z,861.50
2017-08-20T09:22:04.071Z,861.51
2017-08-20T09:23:04.061Z,861.46
2017-08-20T09:24:04.049Z,861.41
2017-08-20T09:25:04.038Z,861.38
2017-08-20T09:26:04.130Z,861.35
2017-08-20T09:27:04.022Z,861.38
2017-08-20T09:28:04.013Z,861.37
2017-08-20T09:29:04.008Z,861.36
2017-08-20T09:30:04.000Z,861.34
2017-08-20T09:31:03.985Z,861.35
2017-08-20T09:32:04.079Z,861.35
2017-08-20T09:33:03.967Z,861.39
2017-08-20T09:34:04.094Z,861.42
2017-08-20T09:35:03.956Z,861.41
2017-08-20T09:36:03.947Z,861.44
2017-08-20T09:37:03.935Z,861.45
2017-08-20T09:38:04.180Z,861.49
2017-08-20T09:39:04.016Z,861.44
2017-08-20T09:40:03.909Z,861.43
2017-08-20T09:41:03.898Z,861.44
2017-08-20T09:42:03.890Z,861.46
2017-08-20T09:43:03.886Z,861.44
2017-08-20T09:44:03.873Z,861.43
2017-08-20T09:45:03.966Z,861.34
2017-08-20T09:46:03.860Z,861.32
2017-08-20T09:47:03.846Z,861.36
2017-08-20T09:48:03.837Z,861.30
2017-08-20T09:49:03.831Z,861.34
2017-08-20T09:50:03.820Z,861.29
2017-08-20T09:51:03.910Z,861.38
2017-08-20T09:52:03.803Z,861.37
2017-08-20T09:53:03.792Z,861.32
2017-08-20T09:54:03.784Z,861.36
2017-08-20T09:55:03.876Z,861.27
2017-08-20T09:56:03.765Z,861.29
2017-08-20T09:57:03.858Z,861.30
2017-08-20T09:58:03.752Z,861.31
2017-08-20T09:59:03.746Z,861.32
2017-08-20T10:00:03.735Z,861.29
2017-08-20T10:01:03.729Z,861.29
2017-08-20T10:02:03.715Z,861.25
2017-08-20T10:03:03.807Z,861.29
2017-08-20T10:04:03.702Z,861.25
2017-08-20T10:05:03.689Z,861.27
2017-08-20T10:06:03.681Z,861.29
2017-08-20T10:07:03.677Z,861.26
2017-08-20T10:08:03.667Z,861.25
2017-08-20T10:09:03.760Z,861.27
2017-08-20T10:10:03.652Z,861.25
2017-08-20T10:11:03.638Z,861.27
2017-08-20T10:12:03.635Z,861.28
2017-08-20T10:13:03.621Z,861.27
2017-08-20T10:14:03.615Z,861.24
2017-08-20T10:15:03.709Z,861.27
2017-08-20T10:16:03.598Z,861.28
2017-08-20T10:17:03.587Z,861.30
2017-08-20T10:18:03.579Z,861.29
2017-08-20T10:19:03.575Z,861.25
2017-08-20T10:20:03.563Z,861.30
2017-08-20T10:21:03.656Z,861.28
2017-08-20T10:22:03.546Z,861.26
2017-08-20T10:23:03.543Z,861.25
2017-08-20T10:24:03.536Z,861.35
2017-08-20T10:25:03.523Z,861.34
2017-08-20T10:26:03.513Z,861.36
2017-08-20T10:27:03.509Z,861.33
2017-08-20T10:28:03.503Z,861.34
2017-08-20T10:29:03.598Z,861.26
2017-08-20T10:30:03.484Z,861.25
2017-08-20T10:31:03.478Z,861.26
2017-08-20T10:32:03.465Z,861.21
2017-08-20T10:33:03.457Z,861.23
2017-08-20T10:34:03.449Z,861.19
2017-08-20T10:35:03.543Z,861.17
2017-08-20T10:36:03.434Z,861.16
2017-08-20T10:37:03.426Z,861.14
2017-08-20T10:38:03.421Z,861.17
2017-08-20T10:39:03.413Z,861.19
2017-08-20T10:40:03.410Z,861.15
2017-08-20T10:41:03.496Z,861.16
2017-08-20T10:42:03.389Z,861.13
2017-08-20T10:43:03.382Z,861.13
2017-08-20T10:44:03.375Z,861.16
2017-08-20T10:45:03.366Z,861.15
2017-08-20T10:46:03.360Z,861.13
2017-08-20T10:47:03.452Z,861.16
2017-08-20T10:48:03.345Z,861.18
2017-08-20T10:49:03.343Z,861.16
2017-08-20T10:50:03.330Z,861.17
2017-08-20T10:51:03.323Z,861.21
2017-08-20T10:52:03.321Z,861.14
2017-08-20T10:53:03.409Z,861.12
2017-08-20T10:54:03.301Z,861.13
2017-08-20T10:55:03.293Z,861.10
2017-08-20T10:56:03.294Z,861.09
2017-08-20T10:57:03.278Z,861.12
2017-08-20T10:58:03.278Z,861.17
2017-08-20T10:59:03.368Z,861.14
2017-08-20T11:00:03.257Z,861.15
2017-08-20T11:01:03.252Z,861.14
2017-08-20T11:02:03.243Z,861.11
2017-08-20T11:03:03.236Z,861.09
2017-08-20T11:04:03.229Z,861.16
2017-08-20T11:05:03.322Z,861.12
2017-08-20T11:06:03.214Z,861.12
2017-08-20T11:07:03.214Z,861.15
2017-08-20T11:08:03.202Z,861.15
2017-08-20T11:09:03.194Z,861.11
2017-08-20T11:10:03.193Z,861.05
2017-08-20T11:11:03.279Z,861.00
2017-08-20T11:12:03.179Z,861.00
2017-08-20T11:13:03.171Z,860.98
2017-08-20T11:14:03.158Z,860.96
2017-08-20T11:15:03.151Z,861.01
2017-08-20T11:16:03.151Z,860.98
2017-08-20T11:17:03.242Z,860.94
2017-08-20T11:18:03.130Z,861.00
2017-08-20T11:19:03.125Z,861.05
2017-08-20T11:20:03.118Z,861.06
2017-08-20T11:21:03.110Z,860.99
2017-08-20T11:22:03.104Z,861.01
2017-08-20T11:23:03.097Z,861.04
2017-08-20T11:24:03.091Z,861.01
2017-08-20T11:25:03.084Z,861.00
2017-08-20T11:26:03.077Z,861.07
2017-08-20T11:27:03.170Z,861.01
2017-08-20T11:28:03.063Z,861.03
2017-08-20T11:29:03.056Z,861.01
2017-08-20T11:30:03.049Z,860.99
2017-08-20T11:31:03.043Z,860.97
2017-08-20T11:32:03.043Z,861.01
2017-08-20T11:33:03.130Z,860.99
2017-08-20T11:34:03.030Z,860.96
2017-08-20T11:35:03.017Z,860.96
2017-08-20T11:36:03.010Z,860.93
2017-08-20T11:37:03.005Z,860.92
2017-08-20T11:38:02.997Z,860.90
2017-08-20T11:39:03.090Z,860.90
2017-08-20T11:40:02.997Z,860.94
2017-08-20T11:41:02.983Z,860.96
2017-08-20T11:42:02.972Z,860.93
2017-08-20T11:43:02.965Z,860.85
2017-08-20T11:44:02.958Z,860.83
2017-08-20T11:45:03.053Z,860.87
2017-08-20T11:46:02.945Z,860.87
2017-08-20T11:47:02.940Z,860.89
2017-08-20T11:48:02.932Z,860.82
2017-08-20T11:49:02.925Z,860.87
2017-08-20T11:50:02.919Z,860.89
2017-08-20T11:51:03.013Z,860.85
2017-08-20T11:52:02.907Z,860.86
2017-08-20T11:53:02.901Z,860.88
2017-08-20T11:54:02.900Z,860.87
2017-08-20T11:55:02.893Z,860.89
2017-08-20T11:56:02.881Z,860.86
2017-08-20T11:57:02.874Z,860.90
2017-08-20T11:58:02.875Z,860.89
2017-08-20T11:59:02.969Z,860.93
2017-08-20T12:00:02.857Z,860.96
2017-08-20T12:01:02.851Z,860.98
2017-08-20T12:02:02.845Z,860.95
2017-08-20T12:03:02.838Z,860.96
2017-08-20T12:04:02.838Z,860.99
2017-08-20T12:05:02.826Z,860.99
2017-08-20T12:06:02.820Z,861.05
2017-08-20T12:07:02.814Z,861.06
2017-08-20T12:08:02.809Z,861.09
2017-08-20T12:09:02.908Z,861.12
2017-08-20T12:10:02.799Z,861.13
2017-08-20T12:11:02.896Z,861.13
2017-08-20T12:12:02.790Z,861.07
2017-08-20T12:13:02.785Z,861.03
2017-08-20T12:14:02.774Z,861.04
2017-08-20T12:15:02.869Z,861.03
2017-08-20T12:16:02.768Z,860.98
2017-08-20T12:17:02.758Z,861.00
2017-08-20T12:18:02.753Z,861.02
2017-08-20T12:19:02.747Z,861.01
2017-08-20T12:20:02.748Z,860.99
2017-08-20T12:21:02.839Z,860.93
2017-08-20T12:22:02.736Z,860.92
2017-08-20T12:23:02.743Z,860.89
2017-08-20T12:24:02.722Z,860.88
2017-08-20T12:25:02.715Z,860.87
2017-08-20T12:26:02.714Z,860.93
2017-08-20T12:27:02.810Z,860.92
2017-08-20T12:28:03.005Z,860.91